createdAt,value
2022-09-10T00:01:28.816Z,20.53
2022-09-10T00:03:58.418Z,20.55
2022-09-10T00:06:27.706Z,20.58
2022-09-10T00:08:57.973Z,20.55
2022-09-10T00:11:28.189Z,20.54
2022-09-10T00:13:57.539Z,20.56
2022-09-10T00:16:27.847Z,20.56
2022-09-10T00:18:58.664Z,20.59
2022-09-10T00:21:26.676Z,20.58
2022-09-10T00:23:54.991Z,20.64
2022-09-10T00:26:24.935Z,20.65
2022-09-10T00:28:54.789Z,20.69
2022-09-10T00:31:24.492Z,20.69
2022-09-10T00:33:52.642Z,20.70
2022-09-10T00:36:24.739Z,20.73
2022-09-10T00:38:54.937Z,20.75
2022-09-10T00:41:24.884Z,20.74
2022-09-10T00:43:55.121Z,20.76
2022-09-10T00:46:43.631Z,20.82
2022-09-10T00:49:17.896Z,20.85
2022-09-10T00:51:48.997Z,20.89
2022-09-10T00:54:20.765Z,20.95
2022-09-10T00:56:49.754Z,20.95
2022-09-10T00:59:20.349Z,20.98
2022-09-10T01:01:49.918Z,20.97
2022-09-10T01:04:18.104Z,20.96
2022-09-10T01:06:51.793Z,20.92
2022-09-10T01:09:21.462Z,20.93
2022-09-10T01:12:09.906Z,20.94
2022-09-10T01:15:15.858Z,20.96
2022-09-10T01:17:59.101Z,20.92
2022-09-10T01:20:52.324Z,20.96
2022-09-10T01:23:57.518Z,20.98
2022-09-10T01:26:49.505Z,21.00
2022-09-10T01:29:24.028Z,21.03
2022-09-10T01:31:55.641Z,21.06
2022-09-10T01:34:29.906Z,21.03
2022-09-10T01:37:07.304Z,21.06
2022-09-10T01:39:36.476Z,21.06
2022-09-10T01:42:04.952Z,21.05
2022-09-10T01:44:45.761Z,21.04
2022-09-10T01:47:20.714Z,21.04
2022-09-10T01:50:03.460Z,21.03
2022-09-10T01:52:42.330Z,21.03
2022-09-10T01:55:25.908Z,21.02
2022-09-10T01:58:01.055Z,20.99
2022-09-10T02:00:33.415Z,21.01
2022-09-10T02:03:09.018Z,21.03
2022-09-10T02:05:40.274Z,21.04
2022-09-10T02:08:13.087Z,21.01
2022-09-10T02:10:51.864Z,21.02
2022-09-10T02:13:20.399Z,20.99
2022-09-10T02:15:51.988Z,20.92
2022-09-10T02:18:21.479Z,20.85
2022-09-10T02:20:52.198Z,20.83
2022-09-10T02:23:23.554Z,20.71
2022-09-10T02:25:51.584Z,20.74
2022-09-10T02:28:19.751Z,20.70
2022-09-10T02:30:49.202Z,20.64
2022-09-10T02:33:17.419Z,20.62
2022-09-10T02:35:47.602Z,20.59
2022-09-10T02:38:16.568Z,20.58
2022-09-10T02:40:44.529Z,20.60
2022-09-10T02:43:12.638Z,20.58
2022-09-10T02:45:41.209Z,20.54
2022-09-10T02:48:11.036Z,20.53
2022-09-10T02:50:39.121Z,20.52
2022-09-10T02:53:07.117Z,20.53
2022-09-10T02:55:35.193Z,20.55
2022-09-10T02:58:03.181Z,20.54
2022-09-10T03:00:32.568Z,20.55
2022-09-10T03:03:03.038Z,20.63
2022-09-10T03:05:32.851Z,20.67
2022-09-10T03:08:01.603Z,20.63
2022-09-10T03:10:30.013Z,20.72
2022-09-10T03:12:58.058Z,20.71
2022-09-10T03:15:26.201Z,20.71
2022-09-10T03:17:54.762Z,20.79
2022-09-10T03:20:23.142Z,20.82
2022-09-10T03:22:52.648Z,20.82
2022-09-10T03:25:22.828Z,20.85
2022-09-10T03:27:50.973Z,20.84
2022-09-10T03:30:21.416Z,20.89
2022-09-10T03:32:50.359Z,20.88
2022-09-10T03:35:18.708Z,20.92
2022-09-10T03:37:46.812Z,20.93
2022-09-10T03:40:16.677Z,20.97
2022-09-10T03:42:44.693Z,20.97
2022-09-10T03:45:13.796Z,20.95
2022-09-10T03:47:41.841Z,20.87
2022-09-10T03:50:12.489Z,20.90
2022-09-10T03:52:40.589Z,20.87
2022-09-10T03:55:09.420Z,20.93
2022-09-10T03:57:41.740Z,20.86
2022-09-10T04:00:11.951Z,20.80
2022-09-10T04:02:41.783Z,20.89
2022-09-10T04:05:10.670Z,20.80
2022-09-10T04:07:38.723Z,20.78
2022-09-10T04:10:07.660Z,20.73
2022-09-10T04:12:36.372Z,20.75
2022-09-10T04:15:07.058Z,20.78
2022-09-10T04:17:35.139Z,20.82
2022-09-10T04:20:03.927Z,20.88
2022-09-10T04:22:31.980Z,20.88
2022-09-10T04:24:59.931Z,20.88
2022-09-10T04:27:28.687Z,20.86
2022-09-10T04:29:57.569Z,20.87
2022-09-10T04:32:27.424Z,20.83
2022-09-10T04:34:55.702Z,20.86
2022-09-10T04:37:24.678Z,20.88
2022-09-10T04:39:52.795Z,20.91
2022-09-10T04:42:21.087Z,20.91
2022-09-10T04:44:49.225Z,20.83
2022-09-10T04:47:18.819Z,20.82
2022-09-10T04:49:48.584Z,20.77
2022-09-10T04:52:17.376Z,20.72
2022-09-10T04:54:45.560Z,20.65
2022-09-10T04:57:13.689Z,20.64
2022-09-10T04:59:41.711Z,20.62
2022-09-10T05:02:10.624Z,20.63
2022-09-10T05:04:39.545Z,20.59
2022-09-10T05:07:09.023Z,20.58
2022-09-10T05:09:37.354Z,20.53
2022-09-10T05:12:08.356Z,20.53
2022-09-10T05:14:36.324Z,20.51
2022-09-10T05:17:04.546Z,20.55
2022-09-10T05:19:33.055Z,20.54
2022-09-10T05:22:01.194Z,20.59
2022-09-10T05:24:32.045Z,20.62
2022-09-10T05:27:00.081Z,20.60
2022-09-10T05:29:28.626Z,20.61
2022-09-10T05:31:56.719Z,20.62
2022-09-10T05:34:24.801Z,20.58
2022-09-10T05:36:53.047Z,20.62
2022-09-10T05:39:21.193Z,20.62
2022-09-10T05:41:50.932Z,20.56
2022-09-10T05:44:19.275Z,20.54
2022-09-10T05:46:48.400Z,20.62
2022-09-10T05:49:16.845Z,20.56
2022-09-10T05:51:44.979Z,20.58
2022-09-10T05:54:13.162Z,20.63
2022-09-10T05:56:41.341Z,20.65
2022-09-10T05:59:11.258Z,20.70
2022-09-10T06:01:39.327Z,20.73
2022-09-10T06:04:07.386Z,20.83
2022-09-10T06:06:35.561Z,20.85
2022-09-10T06:09:03.745Z,20.91
2022-09-10T06:11:32.183Z,21.04
2022-09-10T06:14:00.436Z,21.04
2022-09-10T06:16:30.020Z,21.11
2022-09-10T06:18:59.714Z,21.13
2022-09-10T06:21:29.542Z,21.22
2022-09-10T06:23:57.636Z,21.29
2022-09-10T06:26:25.722Z,21.35
2022-09-10T06:29:02.749Z,21.37
2022-09-10T06:31:32.637Z,21.41
2022-09-10T06:34:00.725Z,21.45
2022-09-10T06:36:29.120Z,21.58
2022-09-10T06:38:58.186Z,21.68
2022-09-10T06:41:27.095Z,21.82
2022-09-10T06:43:55.587Z,21.95
2022-09-10T06:46:57.206Z,21.93
2022-09-10T06:49:14.554Z,21.84
2022-09-10T06:51:42.587Z,21.78
2022-09-10T06:54:10.601Z,21.71
2022-09-10T06:56:38.640Z,21.68
2022-09-10T06:59:10.010Z,21.71
2022-09-10T07:01:38.348Z,21.77
2022-09-10T07:04:07.320Z,21.82
2022-09-10T07:06:38.433Z,21.78
2022-09-10T07:09:06.886Z,21.89
2022-09-10T07:11:39.272Z,21.93
2022-09-10T07:14:14.042Z,21.98
2022-09-10T07:16:44.453Z,21.96
2022-09-10T07:19:13.538Z,22.04
2022-09-10T07:21:43.105Z,22.07
2022-09-10T07:24:14.689Z,22.01
2022-09-10T07:26:43.172Z,22.02
2022-09-10T07:29:11.503Z,22.09
2022-09-10T07:31:41.765Z,22.11
2022-09-10T07:34:09.813Z,22.23
2022-09-10T07:36:38.135Z,22.38
2022-09-10T07:39:12.151Z,22.52
2022-09-10T07:41:40.286Z,22.56
2022-09-10T07:44:08.583Z,22.64
2022-09-10T07:46:38.294Z,22.72
2022-09-10T07:49:06.395Z,22.72
2022-09-10T07:51:35.797Z,22.60
2022-09-10T07:54:03.916Z,22.59
2022-09-10T07:56:34.889Z,22.53
2022-09-10T07:59:03.054Z,22.50
2022-09-10T08:01:31.872Z,22.40
2022-09-10T08:04:00.533Z,22.31
2022-09-10T08:06:28.583Z,22.25
2022-09-10T08:08:56.983Z,22.25
2022-09-10T08:11:25.352Z,22.20
2022-09-10T08:13:56.997Z,22.24
2022-09-10T08:16:26.967Z,22.28
2022-09-10T08:18:57.346Z,22.33
2022-09-10T08:21:26.018Z,22.44
2022-09-10T08:23:55.932Z,22.47
2022-09-10T08:26:25.572Z,22.52
2022-09-10T08:28:57.931Z,22.55
2022-09-10T08:31:27.230Z,22.55
2022-09-10T08:33:56.967Z,22.53
2022-09-10T08:36:26.311Z,22.46
2022-09-10T08:39:00.782Z,22.44
2022-09-10T08:41:42.933Z,22.35
2022-09-10T08:45:02.243Z,22.32
2022-09-10T08:47:59.697Z,22.33
2022-09-10T08:50:38.204Z,22.41
2022-09-10T08:56:17.540Z,22.63
2022-09-10T09:02:08.525Z,22.67
2022-09-10T09:05:25.620Z,22.67
2022-09-10T09:07:59.125Z,22.68
2022-09-10T09:11:14.908Z,22.59
2022-09-10T09:14:21.924Z,22.51
2022-09-10T09:22:21.238Z,22.53
2022-09-10T10:21:56.726Z,23.16
2022-09-10T11:12:27.496Z,23.63
2022-09-10T11:59:55.023Z,23.84
2022-09-10T12:11:52.690Z,23.97
2022-09-10T12:27:02.047Z,24.13
2022-09-10T12:29:37.660Z,24.27
2022-09-10T12:32:35.498Z,24.27
2022-09-10T12:44:01.332Z,24.63
2022-09-10T12:46:44.995Z,24.68
2022-09-10T12:52:42.235Z,24.62
2022-09-10T12:55:28.186Z,24.55
2022-09-10T12:58:08.284Z,24.56
2022-09-10T13:00:49.142Z,24.52
2022-09-10T13:06:49.435Z,24.57
2022-09-10T13:09:24.984Z,24.62
2022-09-10T13:11:58.322Z,24.73
2022-09-10T13:14:32.441Z,24.80
2022-09-10T13:17:02.486Z,24.88
2022-09-10T13:19:54.645Z,24.98
2022-09-10T13:23:09.236Z,25.09
2022-09-10T13:26:43.439Z,25.23
2022-09-10T13:32:23.684Z,25.43
2022-09-10T13:52:03.832Z,26.30
2022-09-10T13:54:36.101Z,26.42
2022-09-10T13:57:14.565Z,26.53
2022-09-10T13:59:44.757Z,26.77
2022-09-10T14:02:19.794Z,26.55
2022-09-10T14:04:51.967Z,26.41
2022-09-10T14:10:34.774Z,26.40
2022-09-10T14:13:18.244Z,26.37
2022-09-10T14:15:46.759Z,26.58
2022-09-10T14:18:18.703Z,26.62
2022-09-10T14:27:30.281Z,27.74
2022-09-10T14:30:41.968Z,27.50
2022-09-10T14:33:38.731Z,27.38
2022-09-10T14:36:18.547Z,27.99
2022-09-10T14:42:28.769Z,28.00
2022-09-10T14:47:55.044Z,27.61
2022-09-10T14:50:47.129Z,28.06
2022-09-10T14:56:47.787Z,28.83
2022-09-10T14:59:26.477Z,28.51
2022-09-10T15:02:10.960Z,28.73
2022-09-10T15:04:53.592Z,29.07
2022-09-10T15:07:26.771Z,29.13
2022-09-10T15:10:31.874Z,29.06
2022-09-10T15:13:01.194Z,28.77
2022-09-10T15:15:40.573Z,28.45
2022-09-10T15:21:26.209Z,27.87
2022-09-10T15:23:55.008Z,27.61
2022-09-10T15:26:23.238Z,27.45
2022-09-10T15:28:52.948Z,27.17
2022-09-10T15:31:23.565Z,27.25
2022-09-10T15:33:52.730Z,27.45
2022-09-10T15:36:22.543Z,27.49
2022-09-10T15:38:52.541Z,27.36
2022-09-10T15:41:23.298Z,27.19
2022-09-10T15:43:51.847Z,27.43
2022-09-10T15:46:25.398Z,27.59
2022-09-10T15:48:55.927Z,27.89
2022-09-10T15:51:25.441Z,28.13
2022-09-10T15:53:54.865Z,28.47
2022-09-10T15:56:26.293Z,28.85
2022-09-10T15:58:56.725Z,29.08
2022-09-10T16:02:10.642Z,29.09
2022-09-10T16:04:43.090Z,29.07
2022-09-10T16:07:11.595Z,28.69
2022-09-10T16:09:40.306Z,28.23
2022-09-10T16:12:08.739Z,27.84
2022-09-10T16:14:36.934Z,27.58
2022-09-10T16:17:10.632Z,27.36
2022-09-10T16:19:41.605Z,27.24
2022-09-10T16:22:11.320Z,27.21
2022-09-10T16:24:42.041Z,27.09
2022-09-10T16:32:37.611Z,26.55
2022-09-10T16:38:19.774Z,25.82
2022-09-10T16:40:48.696Z,25.59
2022-09-10T16:43:17.267Z,25.53
2022-09-10T16:45:51.667Z,25.55
2022-09-10T16:48:20.619Z,25.63
2022-09-10T16:50:48.794Z,25.73
2022-09-10T16:53:19.571Z,25.77
2022-09-10T16:55:51.930Z,25.85
2022-09-10T16:58:22.724Z,25.79
2022-09-10T17:00:51.870Z,25.67
2022-09-10T17:03:22.586Z,25.69
2022-09-10T17:05:51.698Z,25.92
2022-09-10T17:08:24.025Z,26.01
2022-09-10T17:10:52.239Z,26.00
2022-09-10T17:13:22.253Z,26.21
2022-09-10T17:15:54.587Z,26.60
2022-09-10T17:18:31.155Z,27.18
2022-09-10T17:20:59.333Z,27.93
2022-09-10T17:23:29.363Z,28.46
2022-09-10T17:25:58.542Z,28.88
2022-09-10T17:28:27.420Z,29.06
2022-09-10T17:30:56.974Z,29.28
2022-09-10T17:33:27.331Z,29.76
2022-09-10T17:35:57.862Z,30.15
2022-09-10T17:38:26.318Z,30.43
2022-09-10T17:41:01.609Z,30.76
2022-09-10T17:43:32.120Z,31.00
2022-09-10T17:46:04.315Z,31.14
2022-09-10T17:48:32.957Z,30.93
2022-09-10T17:51:01.328Z,30.91
2022-09-10T17:53:30.043Z,30.58
2022-09-10T17:56:05.477Z,30.18
2022-09-10T17:58:34.408Z,29.82
2022-09-10T18:01:04.008Z,29.33
2022-09-10T18:03:33.777Z,28.97
2022-09-10T18:06:05.413Z,28.58
2022-09-10T18:08:45.221Z,28.29
2022-09-10T18:11:23.604Z,28.13
2022-09-10T18:13:56.297Z,28.07
2022-09-10T18:16:26.999Z,27.98
2022-09-10T18:18:59.611Z,27.81
2022-09-10T18:21:31.221Z,27.71
2022-09-10T18:24:01.540Z,27.82
2022-09-10T18:26:33.403Z,28.06
2022-09-10T18:29:03.588Z,28.10
2022-09-10T18:31:34.392Z,27.92
2022-09-10T18:34:03.262Z,27.54
2022-09-10T18:36:31.883Z,27.16
2022-09-10T18:39:03.520Z,26.73
2022-09-10T18:41:36.626Z,26.19
2022-09-10T18:44:07.324Z,25.67
2022-09-10T18:46:36.990Z,25.31
2022-09-10T18:49:06.048Z,25.06
2022-09-10T18:51:34.134Z,24.80
2022-09-10T18:54:04.207Z,24.58
2022-09-10T18:56:33.921Z,24.37
2022-09-10T18:59:05.003Z,24.17
2022-09-10T19:01:33.944Z,23.99
2022-09-10T19:04:03.292Z,23.83
2022-09-10T19:06:33.189Z,23.62
2022-09-10T19:09:04.755Z,23.49
2022-09-10T19:11:39.446Z,23.32
2022-09-10T19:14:09.790Z,23.22
2022-09-10T19:16:38.211Z,23.06
2022-09-10T19:19:07.769Z,22.91
2022-09-10T19:21:36.951Z,22.80
2022-09-10T19:24:05.501Z,22.68
2022-09-10T19:26:36.547Z,22.56
2022-09-10T19:29:05.352Z,22.47
2022-09-10T19:31:35.141Z,22.36
2022-09-10T19:34:07.006Z,22.29
2022-09-10T19:36:36.671Z,22.20
2022-09-10T19:39:06.768Z,22.16
2022-09-10T19:41:41.664Z,22.04
2022-09-10T19:44:12.198Z,21.95
2022-09-10T19:46:41.455Z,21.93
2022-09-10T19:49:10.203Z,21.88
2022-09-10T19:51:39.553Z,21.76
2022-09-10T19:54:08.009Z,21.73
2022-09-10T19:56:40.120Z,21.63
2022-09-10T19:59:10.033Z,21.53
2022-09-10T20:01:40.335Z,21.41
2022-09-10T20:04:12.759Z,21.24
2022-09-10T20:06:42.616Z,21.14
2022-09-10T20:09:11.733Z,21.09
2022-09-10T20:11:41.361Z,21.05
2022-09-10T20:14:13.149Z,21.01
2022-09-10T20:16:43.314Z,20.94
2022-09-10T20:19:12.684Z,20.83
2022-09-10T20:21:42.445Z,20.72
2022-09-10T20:24:11.570Z,20.66
2022-09-10T20:26:41.798Z,20.58
2022-09-10T20:29:13.538Z,20.44
2022-09-10T20:31:43.349Z,20.33
2022-09-10T20:34:14.269Z,20.29
2022-09-10T20:36:43.243Z,20.25
2022-09-10T20:39:13.925Z,20.14
2022-09-10T20:41:43.804Z,20.11
2022-09-10T20:44:16.518Z,20.14
2022-09-10T20:46:44.862Z,20.13
2022-09-10T20:49:14.198Z,20.08
2022-09-10T20:51:42.452Z,20.00
2022-09-10T20:54:13.786Z,19.98
2022-09-10T20:56:43.324Z,19.96
2022-09-10T20:59:14.736Z,19.93
2022-09-10T21:01:44.533Z,19.91
2022-09-10T21:04:13.304Z,19.81
2022-09-10T21:06:41.531Z,19.72
2022-09-10T21:09:10.286Z,19.70
2022-09-10T21:11:38.512Z,19.66
2022-09-10T21:14:09.241Z,19.58
2022-09-10T21:16:39.072Z,19.50
2022-09-10T21:19:09.048Z,19.48
2022-09-10T21:21:39.457Z,19.46
2022-09-10T21:24:09.640Z,19.42
2022-09-10T21:26:39.573Z,19.43
2022-09-10T21:29:11.522Z,19.41
2022-09-10T21:31:40.261Z,19.42
2022-09-10T21:34:09.091Z,19.41
2022-09-10T21:36:38.942Z,19.37
2022-09-10T21:39:09.882Z,19.34
2022-09-10T21:41:40.563Z,19.27
2022-09-10T21:44:14.250Z,19.25
2022-09-10T21:46:43.716Z,19.21
2022-09-10T21:49:12.166Z,19.17
2022-09-10T21:51:40.118Z,19.09
2022-09-10T21:54:08.174Z,19.04
2022-09-10T21:56:36.158Z,19.01
2022-09-10T21:59:04.742Z,19.02
2022-09-10T22:01:34.211Z,18.99
2022-09-10T22:04:02.773Z,18.99
2022-09-10T22:06:32.365Z,19.01
2022-09-10T22:09:02.009Z,19.01
2022-09-10T22:11:32.159Z,18.99
2022-09-10T22:14:02.339Z,19.03
2022-09-10T22:16:32.282Z,19.00
2022-09-10T22:19:03.366Z,19.00
2022-09-10T22:21:31.887Z,18.99
2022-09-10T22:24:00.197Z,19.00
2022-09-10T22:26:29.854Z,19.04
2022-09-10T22:29:00.097Z,19.06
2022-09-10T22:31:31.691Z,19.09
2022-09-10T22:34:04.209Z,19.01
2022-09-10T22:36:34.793Z,18.94
2022-09-10T22:39:04.396Z,18.88
2022-09-10T22:41:34.334Z,18.80
2022-09-10T22:44:03.174Z,18.77
2022-09-10T22:46:31.878Z,18.72
2022-09-10T22:49:01.134Z,18.68
2022-09-10T22:51:34.300Z,18.63
2022-09-10T22:54:02.873Z,18.66
2022-09-10T22:56:31.082Z,18.67
2022-09-10T22:59:00.890Z,18.69
2022-09-10T23:01:31.137Z,18.68
2022-09-10T23:04:00.645Z,18.67
2022-09-10T23:06:31.951Z,18.62
2022-09-10T23:09:04.826Z,18.56
2022-09-10T23:11:34.472Z,18.53
2022-09-10T23:14:05.541Z,18.46
2022-09-10T23:16:35.525Z,18.39
2022-09-10T23:19:08.785Z,18.35
2022-09-10T23:21:41.963Z,18.35
2022-09-10T23:24:10.270Z,18.31
2022-09-10T23:26:38.377Z,18.26
2022-09-10T23:29:06.678Z,18.25
2022-09-10T23:31:38.394Z,18.22
2022-09-10T23:34:07.904Z,18.22
2022-09-10T23:36:39.004Z,18.22
2022-09-10T23:39:09.081Z,18.21
2022-09-10T23:41:37.343Z,18.21
2022-09-10T23:44:05.336Z,18.22
2022-09-10T23:46:34.153Z,18.27
2022-09-10T23:49:02.844Z,18.28
2022-09-10T23:51:31.230Z,18.30
2022-09-10T23:54:00.626Z,18.37
2022-09-10T23:56:29.399Z,18.43
2022-09-10T23:58:59.335Z,18.46
